Norristown, PA

11:42 PM EST on January 23, 2017 (GMT -0500)
N Wales | | Change Station
Active Advisory: Gale Warning

Elev 259 ft 40.16 °N, 75.33 °W | Updated 10 seconds ago

Rain
Rain
36.1 °F
Feels Like 36 °F
N
2.7
Wind Variable Wind from North

Today
High -- | Low -- °F
--% Chance of Precip.
Yesterday
High -- | Low -- °F
Precip. -- in
Pressure 29.41 in
Visibility 7.0 miles
Clouds Mostly Cloudy 1300 ft
Overcast 1900 ft
Windchill 36 °F
Dew Point 36 °F
Humidity 98%
Rainfall 0.68 in
Snow Depth Not available.
7:17 AM 5:09 PM
Waning Crescent, 14% visible
METAR KLOM 240415Z AUTO 05013G23KT 7SM BKN013 OVC019 02/01 A2941 RMK AO1
Pressure 29.41 in
Visibility 7.0 miles
Clouds Mostly Cloudy 1300 ft
Overcast 1900 ft
Windchill 36 °F
Dew Point 36 °F
Humidity 98%
Rainfall 0.68 in
Snow Depth Not available.
7:17 AM 5:09 PM
Waning Crescent, 14% visible
METAR KLOM 240415Z AUTO 05013G23KT 7SM BKN013 OVC019 02/01 A2941 RMK AO1

Get Your Daily Forecast Email!

Thanks for signing up!

Be on the lookout for a verification email in your inbox.

You'll start receiving the daily forecast at 8 AM.

×

10-Day Weather Forecast

Almanac

Astronomy

Jan. 23, 2017 Rise Set
Actual Time
Civil Twilight
Nautical Twilight
Astronomical Twilight
Moon
Length of Visible Light
Length of Day
Tomorrow will be .
, % of the Moon is Illuminated

Today's Extremes

State Highs State Lows

Community

WunderPhotos

Upload Photos

1,962,540 photos uploaded!

WunderBlog® & News

Nearby

Air Quality

  Air Quality AQ Index Pollutant
Not available.

Snow Depth

Station Depth Elevation

Earthquake Activity

City Distance Mag. Time & Date
Minimum magnitude displayed is 2.5.

Coastal Water Temperatures

Place Temperature

Stations

Nearby Weather Stations

Station Location Temp. Windchill Dew Point Humidity Wind Precip. Elev Updated Type
                   

Watches & Warnings

Gale Warning
Issued: 7:41 PM EST Jan. 23, 2017 – National Weather Service

... Gale Warning now in effect until 1 am EST Tuesday...

* winds... northeast 20 to 25 kt with gusts up to 40 kt.

* Seas... 3 to 4 feet.

Precautionary/preparedness actions...

A Gale Warning means winds of 34 to 47 knots are imminent or
occurring. Operating a vessel in gale conditions requires
experience and properly equipped vessels. It is highly
recommended that mariners without the proper experience seek safe
Harbor prior to the onset of gale conditions.